createdAt,value
2023-02-16T00:04:31.338Z,100254.47
2023-02-16T00:09:54.794Z,100247.03
2023-02-16T00:14:57.422Z,100225.72
2023-02-16T00:20:00.336Z,100217.97
2023-02-16T00:25:02.530Z,100204.41
2023-02-16T00:30:21.264Z,100217.06
2023-02-16T00:35:25.448Z,100248.56
2023-02-16T00:40:27.772Z,100214.28
2023-02-16T00:45:30.540Z,100229.06
2023-02-16T00:50:34.652Z,100171.25
2023-02-16T00:55:37.036Z,100245.47
2023-02-16T01:00:45.018Z,100242.16
2023-02-16T01:05:47.879Z,100206.41
2023-02-16T01:11:08.246Z,100190.34
2023-02-16T01:16:17.204Z,100238.41
2023-02-16T01:21:19.747Z,100225.06
2023-02-16T01:26:22.198Z,100241.06
2023-02-16T01:31:24.437Z,100245.28
2023-02-16T01:36:37.357Z,100250.41
2023-02-16T01:42:02.880Z,100244.69
2023-02-16T01:47:24.411Z,100181.03
2023-02-16T01:52:34.899Z,100241.59
2023-02-16T01:58:05.241Z,100210.31
2023-02-16T02:03:30.494Z,100224.19
2023-02-16T02:08:55.833Z,100254.50
2023-02-16T02:14:13.477Z,100253.25
2023-02-16T02:19:16.503Z,100214.97
2023-02-16T02:24:51.231Z,100230.41
2023-02-16T02:30:09.253Z,100255.06
2023-02-16T02:35:38.847Z,100262.59
2023-02-16T02:41:07.412Z,100262.50
2023-02-16T02:46:26.903Z,100191.91
2023-02-16T02:51:29.284Z,100234.53
2023-02-16T02:56:55.510Z,100193.34
2023-02-16T03:01:59.997Z,100275.16
2023-02-16T03:07:02.964Z,100234.06
2023-02-16T03:12:24.519Z,100253.06
2023-02-16T03:17:52.238Z,100172.69
2023-02-16T03:23:12.896Z,100222.06
2023-02-16T03:28:35.169Z,100225.88
2023-02-16T03:33:37.536Z,100222.97
2023-02-16T03:38:40.044Z,100226.75
2023-02-16T03:43:42.246Z,100203.44
2023-02-16T03:48:44.439Z,100192.66
2023-02-16T03:53:46.661Z,100194.78
2023-02-16T03:58:48.885Z,100243.50
2023-02-16T04:03:51.179Z,100243.81
2023-02-16T04:08:53.427Z,100171.03
2023-02-16T04:13:55.690Z,100229.53
2023-02-16T04:18:57.898Z,100212.19
2023-02-16T04:24:00.125Z,100252.81
2023-02-16T04:29:02.367Z,100252.06
2023-02-16T04:34:05.700Z,100209.75
2023-02-16T04:39:07.908Z,100182.03
2023-02-16T04:44:10.242Z,100234.19
2023-02-16T04:49:12.563Z,100215.44
2023-02-16T04:54:15.043Z,100239.28
2023-02-16T04:59:17.257Z,100232.41
2023-02-16T05:04:19.553Z,100240.94
2023-02-16T05:09:21.840Z,100187.22
2023-02-16T05:14:47.208Z,100200.84
2023-02-16T05:19:58.118Z,100216.19
2023-02-16T05:25:01.502Z,100251.03
2023-02-16T05:30:04.314Z,100250.13
2023-02-16T05:35:07.006Z,100248.50
2023-02-16T05:40:11.161Z,100216.41
2023-02-16T05:45:13.428Z,100202.78
2023-02-16T05:50:15.729Z,100228.94
2023-02-16T05:55:18.037Z,100215.97
2023-02-16T06:00:20.483Z,100201.31
2023-02-16T06:05:22.756Z,100235.94
2023-02-16T06:10:24.972Z,100247.47
2023-02-16T06:15:27.165Z,100250.28
2023-02-16T06:20:29.413Z,100183.13
2023-02-16T06:25:31.672Z,100238.53
2023-02-16T06:30:36.488Z,100243.84
2023-02-16T06:35:38.946Z,100217.75
2023-02-16T06:40:41.225Z,100251.63
2023-02-16T06:45:43.527Z,100196.56
2023-02-16T06:50:45.722Z,100248.63
2023-02-16T06:55:50.486Z,100242.75
2023-02-16T07:00:55.545Z,100212.00
2023-02-16T07:06:00.189Z,100238.06
2023-02-16T07:11:03.597Z,100205.00
2023-02-16T07:16:07.551Z,100224.97
2023-02-16T07:21:09.754Z,100185.94
2023-02-16T07:26:12.177Z,100198.69
2023-02-16T07:31:16.194Z,100219.44
2023-02-16T07:36:18.459Z,100197.56
2023-02-16T07:41:20.902Z,100222.97
2023-02-16T07:46:23.113Z,100229.28
2023-02-16T07:51:27.059Z,100217.41
2023-02-16T07:56:31.402Z,100205.75
2023-02-16T08:01:34.498Z,100156.59
2023-02-16T08:06:36.773Z,100208.47
2023-02-16T08:11:39.383Z,100195.28
2023-02-16T08:16:42.045Z,100194.84
2023-02-16T08:21:49.526Z,100219.25
2023-02-16T08:26:55.063Z,100159.44
2023-02-16T08:31:59.713Z,100219.97
2023-02-16T08:37:02.515Z,100215.31
2023-02-16T08:42:05.481Z,100203.31
2023-02-16T08:47:09.666Z,100142.66
2023-02-16T08:52:12.991Z,100209.50
2023-02-16T08:57:16.103Z,100170.84
2023-02-16T09:02:18.383Z,100149.09
2023-02-16T09:07:23.241Z,100196.09
2023-02-16T09:12:25.822Z,100176.72
2023-02-16T09:17:29.244Z,100195.13
2023-02-16T09:22:31.918Z,100164.75
2023-02-16T09:27:35.000Z,100162.09
2023-02-16T09:32:37.215Z,100189.03
2023-02-16T09:37:39.388Z,100190.00
2023-02-16T09:42:44.996Z,100186.97
2023-02-16T09:47:49.360Z,100182.16
2023-02-16T09:53:08.917Z,100179.94
2023-02-16T09:58:18.997Z,100174.75
2023-02-16T10:03:39.898Z,100181.19
2023-02-16T10:08:46.000Z,100131.84
2023-02-16T10:13:54.360Z,100142.78
2023-02-16T10:18:57.183Z,100134.78
2023-02-16T10:24:04.005Z,100156.66
2023-02-16T10:29:23.556Z,100140.53
2023-02-16T10:34:31.708Z,100161.59
2023-02-16T10:39:38.939Z,100065.22
2023-02-16T10:44:46.758Z,100130.06
2023-02-16T10:49:49.810Z,100120.81
2023-02-16T10:54:52.274Z,100161.09
2023-02-16T10:59:56.079Z,100140.53
2023-02-16T11:04:59.227Z,100159.16
2023-02-16T11:10:19.600Z,100162.19
2023-02-16T11:15:27.191Z,100088.88
2023-02-16T11:20:35.477Z,100151.66
2023-02-16T11:25:38.246Z,100121.63
2023-02-16T11:30:41.773Z,100127.84
2023-02-16T11:35:45.212Z,100147.34
2023-02-16T11:40:51.842Z,100147.34
2023-02-16T11:46:16.932Z,100110.50
2023-02-16T11:51:39.293Z,100149.00
2023-02-16T11:56:41.641Z,100135.19
2023-02-16T12:02:02.778Z,100139.34
2023-02-16T12:07:15.661Z,100129.59
2023-02-16T12:12:36.545Z,100135.13
2023-02-16T12:18:04.506Z,100131.59
2023-02-16T12:23:29.212Z,100109.63
2023-02-16T12:28:51.326Z,100097.44
2023-02-16T12:34:28.821Z,100095.56
2023-02-16T12:39:59.033Z,100139.34
2023-02-16T12:45:09.904Z,100147.63
2023-02-16T12:50:31.763Z,100144.94
2023-02-16T12:55:33.885Z,100146.31
2023-02-16T13:00:53.615Z,100114.50
2023-02-16T13:06:18.325Z,100109.00
2023-02-16T13:11:48.942Z,100142.09
2023-02-16T13:16:58.203Z,100097.28
2023-02-16T13:22:13.063Z,100145.03
2023-02-16T13:27:24.556Z,100142.56
2023-02-16T13:32:45.770Z,100145.13
2023-02-16T13:38:09.918Z,100125.81
2023-02-16T13:43:20.635Z,100127.78
2023-02-16T13:48:55.205Z,100138.81
2023-02-16T13:54:00.459Z,100132.19
2023-02-16T13:59:35.173Z,100109.34
2023-02-16T14:04:37.371Z,100146.88
2023-02-16T14:09:39.787Z,100145.09
2023-02-16T14:14:41.950Z,100140.78
2023-02-16T14:19:53.250Z,100142.53
2023-02-16T14:24:57.905Z,100109.63
2023-02-16T14:30:01.867Z,100126.56
2023-02-16T14:35:14.033Z,100141.34
2023-02-16T14:40:36.352Z,100136.84
2023-02-16T14:45:44.909Z,100147.91
2023-02-16T14:51:29.151Z,100142.03
2023-02-16T14:56:55.833Z,100148.47
2023-02-16T15:01:58.426Z,100146.22
2023-02-16T15:07:03.588Z,100109.94
2023-02-16T15:12:24.103Z,100117.72
2023-02-16T15:17:35.832Z,100140.97
2023-02-16T15:22:44.952Z,100092.69
2023-02-16T15:28:01.555Z,100090.72
2023-02-16T15:33:07.093Z,100117.56
2023-02-16T15:38:21.452Z,100144.28
2023-02-16T15:43:44.373Z,100147.38
2023-02-16T15:48:46.971Z,100119.47
2023-02-16T15:53:53.335Z,100149.50
2023-02-16T15:59:01.964Z,100134.22
2023-02-16T16:04:20.027Z,100144.19
2023-02-16T16:09:28.949Z,100142.97
2023-02-16T16:14:34.226Z,100109.75
2023-02-16T16:19:38.506Z,100126.38
2023-02-16T16:24:41.118Z,100135.38
2023-02-16T16:29:45.722Z,100123.59
2023-02-16T16:34:48.170Z,100144.25
2023-02-16T16:40:24.108Z,100110.97
2023-02-16T16:45:39.450Z,100129.09
2023-02-16T16:50:42.787Z,100124.44
2023-02-16T16:55:45.041Z,100129.22
2023-02-16T17:00:47.498Z,100136.41
2023-02-16T17:05:49.636Z,100080.44
2023-02-16T17:10:52.274Z,100113.03
2023-02-16T17:15:57.932Z,100138.66
2023-02-16T17:21:00.197Z,100128.56
2023-02-16T17:26:02.973Z,100146.97
2023-02-16T17:31:15.534Z,100134.56
2023-02-16T17:36:21.670Z,100122.13
2023-02-16T17:41:26.365Z,100143.78
2023-02-16T17:46:31.579Z,100132.22
2023-02-16T17:51:36.600Z,100117.13
2023-02-16T17:56:42.108Z,100152.31
2023-02-16T18:01:45.370Z,100156.28
2023-02-16T18:06:47.934Z,100152.88
2023-02-16T18:11:50.998Z,100145.19
2023-02-16T18:16:53.593Z,100162.63
2023-02-16T18:21:56.183Z,100128.56
2023-02-16T18:26:59.449Z,100142.22
2023-02-16T18:32:03.321Z,100151.75
2023-02-16T18:37:05.525Z,100171.38
2023-02-16T18:42:07.968Z,100175.38
2023-02-16T18:47:10.342Z,100150.63
2023-02-16T18:52:15.428Z,100129.34
2023-02-16T18:57:17.847Z,100163.38
2023-02-16T19:02:21.242Z,100171.50
2023-02-16T19:07:23.561Z,100148.06
2023-02-16T19:12:25.938Z,100107.91
2023-02-16T19:17:28.150Z,100164.47
2023-02-16T19:22:30.321Z,100143.16
2023-02-16T19:27:32.889Z,100131.63
2023-02-16T19:32:35.296Z,100108.13
2023-02-16T19:37:37.734Z,100157.91
2023-02-16T19:42:40.090Z,100147.78
2023-02-16T19:47:42.768Z,100145.34
2023-02-16T19:52:45.982Z,100151.00
2023-02-16T19:57:48.266Z,100158.53
2023-02-16T20:02:53.803Z,100151.72
2023-02-16T20:07:56.133Z,100143.44
2023-02-16T20:12:58.824Z,100168.19
2023-02-16T20:18:01.248Z,100152.97
2023-02-16T20:23:03.533Z,100159.50
2023-02-16T20:28:05.811Z,100174.47
2023-02-16T20:33:08.216Z,100143.94
2023-02-16T20:38:10.460Z,100123.09
2023-02-16T20:43:13.982Z,100155.94
2023-02-16T20:48:16.726Z,100152.03
2023-02-16T20:53:18.962Z,100141.75
2023-02-16T20:58:21.250Z,100134.19
2023-02-16T21:03:24.214Z,100147.28
2023-02-16T21:08:29.218Z,100139.88
2023-02-16T21:13:31.522Z,100110.41
2023-02-16T21:18:34.259Z,100123.66
2023-02-16T21:23:36.551Z,100149.38
2023-02-16T21:28:39.136Z,100148.47
2023-02-16T21:33:41.428Z,100133.63
2023-02-16T21:38:44.255Z,100144.16
2023-02-16T21:43:46.467Z,100138.16
2023-02-16T21:48:49.950Z,100128.94
2023-02-16T21:53:53.556Z,100136.41
2023-02-16T21:58:55.856Z,100082.81
2023-02-16T22:03:59.815Z,100126.59
2023-02-16T22:09:05.438Z,100136.47
2023-02-16T22:14:07.615Z,100120.25
2023-02-16T22:19:13.854Z,100143.94
2023-02-16T22:24:18.212Z,100143.69
2023-02-16T22:29:20.511Z,100113.97
2023-02-16T22:34:22.920Z,100113.53
2023-02-16T22:39:25.116Z,100133.16
2023-02-16T22:44:27.397Z,100134.19
2023-02-16T22:49:29.718Z,100129.84
2023-02-16T22:54:31.987Z,100093.22
2023-02-16T22:59:34.435Z,100125.28
2023-02-16T23:04:36.617Z,100099.19
2023-02-16T23:09:38.901Z,100124.50
2023-02-16T23:14:41.213Z,100107.19
2023-02-16T23:19:43.743Z,100082.91
2023-02-16T23:25:05.910Z,100068.47
2023-02-16T23:30:08.459Z,100112.72
2023-02-16T23:35:10.943Z,100126.81
2023-02-16T23:40:13.397Z,100094.34
2023-02-16T23:45:15.693Z,100079.34
2023-02-16T23:50:18.020Z,100092.56
2023-02-16T23:55:20.248Z,100113.63
